Lajitas, Texas
Current Conditions -  °F | °C
As of 7:55 PM on Thursday 18 Dec 2014 (Local Time) from KPRS Reporting Station
Clear Clear  
Wind Chill: 53°   Ceiling: Unl
Heat Index: 53°   Visibility: 10mi
Dew Point: 33°   Wind: 13mph
Humidity: 48%   Direction: 360°N
Pressure: 30.04"   Gusts: NA
Location:  29.3217°N, 103.605°W
Report Text: KPRS 190155Z AUTO 36011KT 10SM CLR 12/01 A3004 RMK AO2 T01150007
Loading
Personal Weather Stations






























Interactive Weather Map New forecast layout! Learn more

10-Day Weather Forecast

Advertisements
Track Severe Weather on mobile